Aviation Digital Data Service (ADDS)

Output produced by METARs form (1404 UTC 19 January 2019)
found at http://www.aviationweather.gov/metar/data/
 
Forecast for: NFTF (FUA AMOTU TONGA , FJ)
Text: TAF NFTF 191103Z 1912/2012 20008KT 9999 -SHRA FEW008 BKN016 BKN100
Forecast period: 1200 UTC 19 January 2019 to 1200 UTC 20 January 2019
Forecast type: FROM: standard forecast or significant change
Winds: from the SSW (200 degrees) at 9 MPH (8 knots; 4.1 m/s)
Visibility: 6 or more miles 10+ km)
Ceiling: 1600 feet AGL
Clouds: few clouds at 800 feet AGL
broken clouds at 1600 feet AGL
broken clouds at 10000 feet AGL
Weather: -SHRA  (light rain showers)
Text: PROB30
Forecast period: 1200 to 1800 UTC 19 January 2019
Forecast type: TEMPORARY: The following changes expected for less than half the time period
Visibility: 3 miles (5 km)
Ceiling: 1500 feet AGL
Clouds: scattered clouds at 600 feet AGL
broken clouds at 1500 feet AGL
Weather: SHRA  (rain showers)
Text: TEMPO 1912/1918 5000 SHRA SCT006 BKN015
Forecast period: 1800 UTC 19 January 2019 to 0600 UTC 20 January 2019
Forecast type: TEMPORARY: The following changes expected for less than half the time period
Visibility: 1.86 miles (2.99 km)
Ceiling: 1500 feet AGL
Clouds: scattered clouds at 600 feet AGL
broken clouds at 1500 feet AGL
few clouds at 1800 feet AGL
Weather: TSRA  (rain associated with thunderstorm(s))